Time;durP1;ratioP1;P1;durP2;ratioP2;P2;SDS_P1;SDS_P2;PMS_P1;PMS_P2;Temp;Humidity;BMP_temperature;BMP_pressure;BME280_temperature;BME280_humidity;BME280_pressure;Samples;Min_cycle;Max_cycle;Signal;HPM_P1;HPM_P2
2023/07/08 00:00:17;;;;;;;7.63;4.03;;;20.90;93.00;;;;;;5132442;27;20015;-74
2023/07/08 00:02:43;;;;;;;8.93;4.72;;;20.90;93.30;;;;;;5132465;27;20027;-74
2023/07/08 00:05:11;;;;;;;7.35;4.75;;;20.80;93.60;;;;;;5132412;27;20023;-74
2023/07/08 00:07:38;;;;;;;9.93;3.92;;;20.80;93.80;;;;;;5132448;27;20019;-74
2023/07/08 00:10:20;;;;;;;6.45;4.10;;;20.70;94.20;;;;;;5131470;27;20011;-74
2023/07/08 00:12:48;;;;;;;5.63;3.83;;;20.70;94.60;;;;;;5126166;27;20106;-74
2023/07/08 00:15:15;;;;;;;5.00;3.45;;;20.60;94.80;;;;;;5132064;27;20122;-74
2023/07/08 00:17:41;;;;;;;6.28;4.10;;;20.60;95.10;;;;;;5131102;27;20027;-74
2023/07/08 00:20:20;;;;;;;6.47;4.45;;;20.60;95.40;;;;;;5116206;27;20019;-74
2023/07/08 00:22:49;;;;;;;6.47;4.05;;;20.60;95.60;;;;;;5130513;27;20461;-74
2023/07/08 00:25:17;;;;;;;7.35;3.80;;;20.50;95.80;;;;;;5132658;27;20023;-74
2023/07/08 00:27:42;;;;;;;7.88;4.10;;;20.50;96.00;;;;;;5132183;27;20019;-72
2023/07/08 00:30:18;;;;;;;8.40;3.78;;;20.50;96.20;;;;;;5130773;27;20111;-72
2023/07/08 00:32:44;;;;;;;5.78;3.90;;;20.40;96.40;;;;;;5132267;27;20213;-72
2023/07/08 00:35:09;;;;;;;6.15;4.20;;;20.40;96.70;;;;;;5131491;27;20403;-72
2023/07/08 00:37:35;;;;;;;8.10;4.25;;;20.40;96.90;;;;;;5126274;27;20137;-72
2023/07/08 00:40:01;;;;;;;10.18;4.28;;;20.40;97.20;;;;;;5129619;27;20023;-72
2023/07/08 00:42:27;;;;;;;5.75;4.18;;;20.30;97.30;;;;;;5131696;27;20023;-72
2023/07/08 00:44:52;;;;;;;11.77;4.60;;;20.30;97.60;;;;;;5131208;27;20116;-72
2023/07/08 00:47:19;;;;;;;5.40;3.85;;;20.20;97.80;;;;;;5131297;27;20088;-72
2023/07/08 00:49:59;;;;;;;7.90;4.50;;;20.20;98.00;;;;;;5131724;27;20016;-72
2023/07/08 00:52:29;;;;;;;8.05;4.07;;;20.20;98.20;;;;;;5131145;27;20070;-72
2023/07/08 00:54:59;;;;;;;6.97;3.80;;;20.20;98.30;;;;;;5131036;27;20050;-72
2023/07/08 00:57:29;;;;;;;7.25;4.13;;;20.20;98.50;;;;;;5131532;27;20075;-72
2023/07/08 01:00:09;;;;;;;7.82;4.05;;;20.10;98.60;;;;;;5099047;27;20101;-72
2023/07/08 01:02:41;;;;;;;7.05;4.25;;;20.10;98.80;;;;;;5131414;27;20016;-72
2023/07/08 01:05:12;;;;;;;8.88;4.28;;;20.10;99.00;;;;;;5130802;27;20033;-72
2023/07/08 01:07:41;;;;;;;7.30;4.53;;;20.10;99.10;;;;;;5131436;27;20099;-72
2023/07/08 01:10:13;;;;;;;7.43;4.55;;;20.10;99.20;;;;;;5131105;27;20023;-72
2023/07/08 01:12:45;;;;;;;8.90;4.35;;;20.00;99.40;;;;;;5121213;27;20510;-74
2023/07/08 01:15:12;;;;;;;8.95;4.10;;;20.00;99.70;;;;;;5130902;27;20399;-74
2023/07/08 01:17:39;;;;;;;8.23;4.60;;;20.00;99.90;;;;;;5131362;27;20026;-74
2023/07/08 01:20:06;;;;;;;7.13;4.07;;;19.90;99.90;;;;;;5131226;27;20121;-74
2023/07/08 01:22:35;;;;;;;6.93;4.03;;;19.90;99.90;;;;;;5130984;27;20011;-74
2023/07/08 01:25:03;;;;;;;8.50;4.28;;;19.90;99.90;;;;;;5130741;27;20058;-74
2023/07/08 01:27:31;;;;;;;7.90;4.93;;;19.80;99.90;;;;;;5120944;27;20024;-74
2023/07/08 01:29:58;;;;;;;5.78;4.22;;;19.80;99.90;;;;;;5130864;27;20015;-74
2023/07/08 01:32:24;;;;;;;6.45;3.85;;;19.80;99.90;;;;;;5130978;27;20023;-74
2023/07/08 01:35:02;;;;;;;6.78;4.47;;;19.80;99.90;;;;;;5130803;27;20448;-74
2023/07/08 01:37:37;;;;;;;7.20;3.90;;;19.70;99.90;;;;;;5130720;27;20026;-74
2023/07/08 01:40:16;;;;;;;;;;;19.70;99.90;;;;;;5118258;28;20511;-74
2023/07/08 01:42:41;;;;;;;6.78;4.20;;;19.60;99.90;;;;;;5131077;28;19907;-74
2023/07/08 01:45:12;;;;;;;6.00;4.60;;;19.60;99.90;;;;;;5131042;28;20433;-74
2023/07/08 01:47:40;;;;;;;5.75;4.20;;;19.60;99.90;;;;;;5130713;28;20012;-74
2023/07/08 01:50:08;;;;;;;5.65;3.88;;;19.60;99.90;;;;;;5124045;28;20019;-74
2023/07/08 01:52:33;;;;;;;6.50;4.20;;;19.50;99.90;;;;;;5130940;28;20035;-74
2023/07/08 01:54:59;;;;;;;8.07;4.15;;;19.50;99.90;;;;;;5127268;28;20043;-74
2023/07/08 01:57:25;;;;;;;9.30;4.43;;;19.50;99.90;;;;;;5129137;28;20444;-74
2023/07/08 01:59:50;;;;;;;9.48;4.43;;;19.50;99.90;;;;;;5129815;28;20031;-74
2023/07/08 02:02:16;;;;;;;11.63;4.60;;;19.50;99.90;;;;;;5128799;28;20337;-74
2023/07/08 02:04:41;;;;;;;6.00;4.22;;;19.40;99.90;;;;;;5129859;28;20023;-74
2023/07/08 02:07:07;;;;;;;8.40;4.65;;;19.40;99.90;;;;;;5130088;28;20023;-74
2023/07/08 02:09:33;;;;;;;8.75;4.13;;;19.40;99.90;;;;;;5130387;28;20065;-74
2023/07/08 02:11:58;;;;;;;5.80;4.07;;;19.30;99.90;;;;;;5130577;27;20023;-74
2023/07/08 02:14:24;;;;;;;6.15;4.18;;;19.30;99.90;;;;;;5133361;27;20046;-74
2023/07/08 02:16:49;;;;;;;6.13;4.30;;;19.30;99.90;;;;;;5133143;27;20023;-74
2023/07/08 02:19:15;;;;;;;4.90;3.80;;;19.30;99.90;;;;;;5134542;27;20027;-74
2023/07/08 02:21:41;;;;;;;9.23;4.88;;;19.20;99.90;;;;;;5134475;27;20030;-74
2023/07/08 02:24:07;;;;;;;10.95;4.15;;;19.20;99.90;;;;;;5134448;27;20391;-74
2023/07/08 02:26:33;;;;;;;6.82;4.40;;;19.20;99.90;;;;;;5133936;27;20414;-74
2023/07/08 02:28:59;;;;;;;7.57;4.40;;;19.20;99.90;;;;;;5134488;27;20017;-74
2023/07/08 02:31:25;;;;;;;7.07;4.20;;;19.20;99.90;;;;;;5134170;27;20471;-74
2023/07/08 02:33:51;;;;;;;5.88;3.95;;;19.20;99.90;;;;;;5134027;27;20026;-74
2023/07/08 02:36:17;;;;;;;6.63;4.38;;;19.10;99.90;;;;;;5134216;27;20486;-74
2023/07/08 02:38:43;;;;;;;7.80;4.22;;;19.10;99.90;;;;;;5133940;27;20019;-74
2023/07/08 02:41:08;;;;;;;11.27;4.50;;;19.10;99.90;;;;;;5133869;27;20045;-74
2023/07/08 02:43:34;;;;;;;7.60;4.57;;;19.10;99.90;;;;;;5134384;27;20072;-74
2023/07/08 02:46:00;;;;;;;8.15;4.10;;;19.10;99.90;;;;;;5134217;27;20027;-74
2023/07/08 02:48:25;;;;;;;6.97;4.40;;;19.00;99.90;;;;;;5134032;27;20011;-74
2023/07/08 02:50:51;;;;;;;7.43;4.30;;;19.10;99.90;;;;;;5115230;27;20077;-74
2023/07/08 02:53:16;;;;;;;6.28;3.83;;;19.00;99.90;;;;;;5134193;27;20023;-74
2023/07/08 02:55:42;;;;;;;9.77;4.35;;;19.00;99.90;;;;;;5133734;27;20061;-74
2023/07/08 02:58:09;;;;;;;6.63;4.75;;;18.90;99.90;;;;;;5133888;27;20439;-74
2023/07/08 03:00:37;;;;;;;7.90;4.63;;;19.00;99.90;;;;;;5133601;27;20471;-74
2023/07/08 03:03:03;;;;;;;7.75;4.60;;;18.90;99.90;;;;;;5133724;27;20193;-74
2023/07/08 03:05:30;;;;;;;7.00;4.28;;;18.90;99.90;;;;;;5127994;27;20042;-74
2023/07/08 03:07:56;;;;;;;9.02;4.38;;;18.90;99.90;;;;;;5133752;27;20051;-74
2023/07/08 03:10:21;;;;;;;8.07;4.53;;;18.90;99.90;;;;;;5131967;27;20308;-74
2023/07/08 03:12:47;;;;;;;9.63;4.45;;;18.90;99.90;;;;;;5126730;27;20392;-74
2023/07/08 03:15:13;;;;;;;7.97;4.43;;;18.80;99.90;;;;;;5123421;27;20027;-74
2023/07/08 03:17:38;;;;;;;9.43;4.78;;;18.80;99.90;;;;;;5133619;27;20023;-74
2023/07/08 03:20:07;;;;;;;8.13;4.57;;;18.80;99.90;;;;;;5133457;27;20053;-74
2023/07/08 03:22:33;;;;;;;8.57;4.53;;;18.80;99.90;;;;;;5132818;27;20103;-74
2023/07/08 03:24:59;;;;;;;10.98;4.85;;;18.80;99.90;;;;;;5132940;27;20081;-74
2023/07/08 03:27:24;;;;;;;6.78;4.32;;;18.70;99.90;;;;;;5133343;27;20380;-74
2023/07/08 03:29:50;;;;;;;7.00;4.65;;;18.70;99.90;;;;;;5124116;27;20081;-74
2023/07/08 03:32:16;;;;;;;10.75;5.05;;;18.70;99.90;;;;;;5133070;27;20014;-74
2023/07/08 03:34:41;;;;;;;9.50;4.65;;;18.70;99.90;;;;;;5133304;27;20057;-74
2023/07/08 03:37:09;;;;;;;8.30;5.03;;;18.60;99.90;;;;;;5132835;27;20301;-74
2023/07/08 03:39:35;;;;;;;6.70;4.57;;;18.60;99.90;;;;;;5133078;27;20042;-74
2023/07/08 03:42:01;;;;;;;9.48;5.05;;;18.60;99.90;;;;;;5133191;27;20039;-74
2023/07/08 03:44:27;;;;;;;9.57;4.65;;;18.60;99.90;;;;;;5132542;27;20072;-74
2023/07/08 03:46:53;;;;;;;7.85;4.53;;;18.50;99.90;;;;;;5132730;27;20012;-74
2023/07/08 03:49:22;;;;;;;8.23;4.28;;;18.50;99.90;;;;;;5132816;27;20046;-74
2023/07/08 03:51:49;;;;;;;6.72;4.80;;;18.50;99.90;;;;;;5132073;27;20555;-74
2023/07/08 03:54:15;;;;;;;7.82;4.80;;;18.50;99.90;;;;;;5133279;27;20029;-74
2023/07/08 03:56:41;;;;;;;7.32;4.78;;;18.50;99.90;;;;;;5131974;27;20441;-74
2023/07/08 03:59:07;;;;;;;8.20;4.70;;;18.40;99.90;;;;;;5114440;27;20111;-74
2023/07/08 04:01:32;;;;;;;7.38;4.82;;;18.50;99.90;;;;;;5127756;27;20016;-74
2023/07/08 04:03:59;;;;;;;8.52;4.47;;;18.40;99.90;;;;;;5132586;27;20058;-74
2023/07/08 04:06:26;;;;;;;8.27;5.00;;;18.40;99.90;;;;;;5132209;27;20015;-74
2023/07/08 04:08:52;;;;;;;8.75;4.85;;;18.40;99.90;;;;;;5132466;27;20475;-74
2023/07/08 04:11:22;;;;;;;7.85;4.50;;;18.40;99.90;;;;;;5132024;27;20087;-74
2023/07/08 04:13:49;;;;;;;7.80;5.22;;;18.40;99.90;;;;;;5132297;27;20394;-74
2023/07/08 04:16:30;;;;;;;9.52;4.88;;;18.40;99.90;;;;;;5132101;27;20027;-74
2023/07/08 04:18:56;;;;;;;9.48;5.00;;;18.40;99.90;;;;;;5113914;27;20061;-74
2023/07/08 04:21:24;;;;;;;9.27;4.57;;;18.40;99.90;;;;;;5113607;27;20019;-74
2023/07/08 04:23:50;;;;;;;7.32;4.90;;;18.40;99.90;;;;;;5132420;27;20015;-74
2023/07/08 04:26:16;;;;;;;7.13;5.03;;;18.40;99.90;;;;;;5121431;27;20152;-74
2023/07/08 04:28:42;;;;;;;6.93;4.80;;;18.40;99.90;;;;;;5132147;27;20023;-74
2023/07/08 04:31:08;;;;;;;9.27;4.72;;;18.40;99.90;;;;;;5132117;27;20023;-74
2023/07/08 04:33:34;;;;;;;10.52;5.18;;;18.40;99.90;;;;;;5131965;27;20416;-74
2023/07/08 04:35:59;;;;;;;7.82;4.88;;;18.50;99.90;;;;;;5131101;27;20075;-74
2023/07/08 04:38:26;;;;;;;7.78;5.10;;;18.50;99.90;;;;;;5110250;28;20020;-74
2023/07/08 04:40:53;;;;;;;8.60;5.22;;;18.50;99.90;;;;;;5125538;27;20023;-74
2023/07/08 04:43:19;;;;;;;8.80;5.30;;;18.50;99.90;;;;;;5131404;27;20027;-74
2023/07/08 04:45:50;;;;;;;9.10;4.72;;;18.50;99.90;;;;;;5113254;27;20023;-74
2023/07/08 04:48:18;;;;;;;7.13;5.15;;;18.50;99.90;;;;;;5130093;27;20053;-74
2023/07/08 04:50:46;;;;;;;6.43;4.63;;;18.50;99.90;;;;;;5109507;28;20042;-74
2023/07/08 04:53:12;;;;;;;8.85;5.10;;;18.50;99.90;;;;;;5128222;27;20484;-74
2023/07/08 04:55:41;;;;;;;8.23;4.82;;;18.50;99.90;;;;;;5131682;27;20023;-74
2023/07/08 04:58:06;;;;;;;11.02;5.00;;;18.50;99.90;;;;;;5132013;27;20019;-74
2023/07/08 05:00:32;;;;;;;7.95;4.63;;;18.60;99.90;;;;;;5130056;27;20034;-74
2023/07/08 05:02:58;;;;;;;8.27;5.47;;;18.60;99.90;;;;;;5129924;27;20027;-74
2023/07/08 05:05:24;;;;;;;9.50;5.43;;;18.60;99.90;;;;;;5112648;27;20038;-74
2023/07/08 05:07:49;;;;;;;7.25;5.22;;;18.60;99.90;;;;;;5130242;27;20487;-74
2023/07/08 05:10:15;;;;;;;6.45;5.22;;;18.60;99.90;;;;;;5131280;27;20046;-74
2023/07/08 05:12:43;;;;;;;9.32;4.93;;;18.70;99.90;;;;;;5131102;27;20098;-74
2023/07/08 05:15:09;;;;;;;7.63;5.20;;;18.70;99.90;;;;;;5131132;27;20110;-74
2023/07/08 05:17:34;;;;;;;9.95;5.28;;;18.70;99.90;;;;;;5131030;27;20382;-74
2023/07/08 05:20:00;;;;;;;8.35;5.10;;;18.70;99.90;;;;;;5131376;27;20023;-74
2023/07/08 05:22:27;;;;;;;8.35;5.30;;;18.70;99.90;;;;;;5125312;27;20023;-74
2023/07/08 05:24:55;;;;;;;11.25;5.38;;;18.80;99.90;;;;;;5123200;27;20054;-74
2023/07/08 05:27:24;;;;;;;9.45;5.40;;;18.80;99.90;;;;;;5130689;27;20030;-74
2023/07/08 05:29:50;;;;;;;8.70;5.70;;;18.80;99.90;;;;;;5120406;27;20080;-74
2023/07/08 05:32:17;;;;;;;8.65;5.13;;;18.90;99.90;;;;;;5130382;27;20510;-74
2023/07/08 05:34:43;;;;;;;12.70;5.55;;;18.90;99.90;;;;;;5131940;27;20027;-74
2023/07/08 05:37:09;;;;;;;8.90;5.13;;;18.90;99.90;;;;;;5130336;27;20109;-75
2023/07/08 05:39:34;;;;;;;6.88;5.18;;;18.90;99.90;;;;;;5130291;27;20621;-74
2023/07/08 05:42:00;;;;;;;8.57;5.32;;;19.00;99.90;;;;;;5122691;27;20023;-75
2023/07/08 05:44:26;;;;;;;6.97;5.13;;;19.00;99.90;;;;;;5125079;28;20027;-75
2023/07/08 05:46:51;;;;;;;8.98;5.57;;;19.10;99.90;;;;;;5132805;27;20015;-75
2023/07/08 05:49:17;;;;;;;9.05;5.22;;;19.10;99.90;;;;;;5136300;27;20023;-75
2023/07/08 05:51:47;;;;;;;7.47;4.78;;;19.10;99.90;;;;;;5137271;27;20103;-75
2023/07/08 05:54:14;;;;;;;10.07;5.43;;;19.20;99.90;;;;;;5136654;27;20107;-75
2023/07/08 05:56:39;;;;;;;8.77;5.82;;;19.20;99.90;;;;;;5136462;27;20038;-75
2023/07/08 05:59:05;;;;;;;9.18;5.55;;;19.20;99.90;;;;;;5135956;27;20033;-75
2023/07/08 06:01:31;;;;;;;7.10;5.00;;;19.30;99.90;;;;;;5137263;27;20395;-74
2023/07/08 06:04:00;;;;;;;8.13;5.70;;;19.30;99.90;;;;;;5136058;27;20581;-74
2023/07/08 06:06:27;;;;;;;8.50;5.60;;;19.40;99.90;;;;;;5136250;27;20387;-74
2023/07/08 06:08:53;;;;;;;9.23;4.95;;;19.40;99.90;;;;;;5135137;27;20050;-74
2023/07/08 06:11:19;;;;;;;12.52;5.13;;;19.40;99.90;;;;;;5118226;27;20483;-75
2023/07/08 06:13:45;;;;;;;9.02;5.38;;;19.50;99.90;;;;;;5136457;27;20051;-75
2023/07/08 06:16:11;;;;;;;9.45;5.00;;;19.60;99.90;;;;;;5137696;27;20091;-75
2023/07/08 06:18:37;;;;;;;7.75;4.72;;;19.60;99.90;;;;;;5136989;27;20019;-75
2023/07/08 06:21:03;;;;;;;8.35;5.30;;;19.60;99.90;;;;;;5140498;27;20147;-79
2023/07/08 06:23:29;;;;;;;9.23;5.22;;;19.70;99.90;;;;;;5128679;27;20027;-76
2023/07/08 06:25:55;;;;;;;6.40;5.03;;;19.80;99.90;;;;;;5132305;27;20022;-77
2023/07/08 06:28:21;;;;;;;10.32;5.47;;;19.90;99.90;;;;;;5134269;27;20883;-77
2023/07/08 06:30:47;;;;;;;9.30;5.05;;;20.00;99.90;;;;;;5130670;27;20076;-77
2023/07/08 06:33:13;;;;;;;9.48;5.05;;;20.00;99.90;;;;;;5134820;27;20023;-77
2023/07/08 06:35:40;;;;;;;6.82;5.10;;;20.10;99.90;;;;;;5124938;27;20032;-76
2023/07/08 06:38:06;;;;;;;9.88;5.20;;;20.20;99.90;;;;;;5142506;27;20494;-78
2023/07/08 06:40:33;;;;;;;9.05;4.70;;;20.30;99.90;;;;;;5143422;27;20383;-79
2023/07/08 06:42:59;;;;;;;9.15;4.43;;;20.40;99.90;;;;;;5142560;27;20390;-79
2023/07/08 06:45:25;;;;;;;10.82;4.45;;;20.50;99.90;;;;;;5128437;27;20027;-75
2023/07/08 06:47:50;;;;;;;8.93;4.65;;;20.60;99.90;;;;;;5136514;27;20019;-72
2023/07/08 06:50:16;;;;;;;8.45;4.60;;;20.70;99.90;;;;;;5133719;27;20038;-72
2023/07/08 06:52:42;;;;;;;5.50;3.70;;;20.90;99.90;;;;;;5136479;27;20485;-72
2023/07/08 06:55:10;;;;;;;6.72;4.22;;;21.00;99.90;;;;;;5135897;27;20051;-72
2023/07/08 06:57:38;;;;;;;7.15;4.10;;;21.20;99.90;;;;;;5134243;27;20019;-72
2023/07/08 07:00:05;;;;;;;12.60;4.07;;;21.30;99.90;;;;;;5133022;27;20058;-72
2023/07/08 07:02:31;;;;;;;7.90;4.20;;;21.40;99.90;;;;;;5133077;27;20027;-72
2023/07/08 07:04:56;;;;;;;7.00;3.95;;;21.60;99.90;;;;;;5131705;27;20100;-73
2023/07/08 07:07:22;;;;;;;8.18;4.30;;;21.70;99.90;;;;;;5131967;27;20023;-73
2023/07/08 07:09:51;;;;;;;7.43;4.28;;;21.80;99.90;;;;;;5131639;27;20023;-73
2023/07/08 07:12:17;;;;;;;8.30;4.35;;;21.90;99.90;;;;;;5128186;27;20487;-73
2023/07/08 07:14:42;;;;;;;9.40;4.18;;;22.10;99.90;;;;;;5131833;27;20080;-73
2023/07/08 07:17:08;;;;;;;8.77;4.30;;;22.20;99.90;;;;;;5131607;27;20058;-73
2023/07/08 07:19:33;;;;;;;7.00;4.47;;;22.30;99.90;;;;;;5132566;27;20027;-73
2023/07/08 07:21:59;;;;;;;8.70;4.85;;;22.40;99.90;;;;;;5133646;27;20008;-73
2023/07/08 07:24:25;;;;;;;9.40;4.68;;;22.60;99.90;;;;;;5133240;27;20030;-73
2023/07/08 07:26:50;;;;;;;8.68;4.40;;;22.70;99.90;;;;;;5133765;27;20015;-73
2023/07/08 07:29:17;;;;;;;8.55;4.78;;;22.80;99.90;;;;;;5108802;28;20024;-73
2023/07/08 07:31:43;;;;;;;6.60;4.38;;;23.00;99.90;;;;;;5125063;27;20019;-73
2023/07/08 07:34:11;;;;;;;6.63;4.50;;;23.10;99.90;;;;;;5128966;27;20399;-73
2023/07/08 07:36:37;;;;;;;6.28;4.57;;;23.30;99.90;;;;;;5123321;27;20015;-73
2023/07/08 07:39:03;;;;;;;7.68;4.30;;;23.50;99.90;;;;;;5133135;27;20024;-73
2023/07/08 07:41:28;;;;;;;6.82;4.47;;;23.70;99.90;;;;;;5120089;27;20102;-74
2023/07/08 07:43:54;;;;;;;8.95;4.70;;;23.80;99.90;;;;;;5133008;27;20496;-73
2023/07/08 07:46:19;;;;;;;12.13;4.68;;;24.00;99.90;;;;;;5132792;27;20019;-73
2023/07/08 07:48:45;;;;;;;7.30;4.55;;;24.20;99.90;;;;;;5133147;27;20015;-73
2023/07/08 07:51:12;;;;;;;10.05;5.20;;;24.30;99.90;;;;;;5132631;27;20395;-73
2023/07/08 07:53:38;;;;;;;10.27;5.07;;;24.50;99.80;;;;;;5133331;27;20095;-73
2023/07/08 07:56:04;;;;;;;9.57;4.70;;;24.60;99.30;;;;;;5132798;27;20118;-73
2023/07/08 07:58:31;;;;;;;13.68;5.28;;;24.80;99.30;;;;;;5132548;27;20016;-74
2023/07/08 08:00:56;;;;;;;10.93;4.78;;;24.90;98.90;;;;;;5132690;27;20524;-74
2023/07/08 08:03:22;;;;;;;11.07;5.60;;;25.10;98.30;;;;;;5132902;27;20030;-74
2023/07/08 08:05:49;;;;;;;9.13;4.88;;;25.20;97.60;;;;;;5132765;27;20019;-74
2023/07/08 08:08:15;;;;;;;5.85;4.50;;;25.20;97.50;;;;;;5132341;27;20379;-74
2023/07/08 08:10:42;;;;;;;8.32;5.13;;;25.40;97.30;;;;;;5131420;27;20046;-74
2023/07/08 08:13:08;;;;;;;7.28;4.82;;;25.60;96.80;;;;;;5132104;27;20087;-74
2023/07/08 08:15:34;;;;;;;13.35;4.90;;;25.70;96.30;;;;;;5132180;27;20027;-74
2023/07/08 08:18:00;;;;;;;10.50;5.22;;;25.90;96.30;;;;;;5132295;27;20061;-74
2023/07/08 08:20:25;;;;;;;8.93;4.88;;;26.10;96.00;;;;;;5118525;27;20049;-74
2023/07/08 08:22:52;;;;;;;8.90;4.82;;;26.20;95.30;;;;;;5132865;27;20041;-76
2023/07/08 08:25:18;;;;;;;9.05;4.80;;;26.40;95.10;;;;;;5132084;27;20490;-77
2023/07/08 08:27:45;;;;;;;10.20;5.00;;;26.50;94.70;;;;;;5131960;27;20098;-77
2023/07/08 08:30:11;;;;;;;8.57;4.97;;;26.70;94.30;;;;;;5132238;27;20019;-77
2023/07/08 08:32:37;;;;;;;8.35;4.63;;;26.90;93.60;;;;;;5132235;27;20022;-77
2023/07/08 08:35:04;;;;;;;10.48;4.97;;;27.00;93.40;;;;;;5124267;27;20437;-77
2023/07/08 08:37:29;;;;;;;8.43;4.78;;;27.20;93.10;;;;;;5121638;27;20050;-77
2023/07/08 08:39:55;;;;;;;12.68;5.40;;;27.40;92.90;;;;;;5118067;27;20448;-77
2023/07/08 08:42:39;;;;;;;9.38;4.53;;;27.60;92.40;;;;;;5131980;27;20015;-77
2023/07/08 08:45:07;;;;;;;8.77;5.00;;;27.70;91.80;;;;;;5121252;27;20015;-79
2023/07/08 08:47:45;;;;;;;12.88;5.10;;;27.90;91.60;;;;;;5133712;27;20469;-81
2023/07/08 08:50:43;;;;;;;8.48;5.38;;;28.10;90.60;;;;;;5118732;27;20052;-78
2023/07/08 08:53:12;;;;;;;10.45;5.13;;;28.20;89.80;;;;;;5127909;27;20038;-77
2023/07/08 08:55:38;;;;;;;8.60;5.63;;;28.30;89.30;;;;;;5131852;27;20403;-77
2023/07/08 08:58:18;;;;;;;7.65;5.53;;;28.50;87.30;;;;;;5131607;27;20132;-77
2023/07/08 09:01:03;;;;;;;11.18;5.70;;;28.50;86.40;;;;;;5126204;27;20023;-78
2023/07/08 09:03:50;;;;;;;;;;;28.50;85.30;;;;;;5132004;27;20027;-78
2023/07/08 09:06:19;;;;;;;9.00;5.80;;;28.60;85.00;;;;;;5120594;27;19903;-78
2023/07/08 09:08:45;;;;;;;11.20;5.40;;;28.80;84.00;;;;;;5128643;27;20023;-77
2023/07/08 09:11:35;;;;;;;9.32;5.70;;;28.90;83.60;;;;;;5121091;27;20106;-78
2023/07/08 09:14:01;;;;;;;12.43;5.93;;;29.10;82.40;;;;;;5126075;27;20024;-76
2023/07/08 09:16:50;;;;;;;9.52;5.68;;;29.10;82.00;;;;;;5137633;27;20031;-79
2023/07/08 09:19:24;;;;;;;10.35;5.80;;;29.20;81.20;;;;;;5134064;27;20031;-80
2023/07/08 09:22:16;;;;;;;9.07;5.35;;;29.30;80.60;;;;;;5125226;27;20413;-79
2023/07/08 09:24:54;;;;;;;10.60;5.53;;;29.40;79.10;;;;;;5127227;27;20033;-79
2023/07/08 09:27:20;;;;;;;14.27;7.60;;;29.50;78.80;;;;;;5137380;27;20052;-80
2023/07/08 09:29:46;;;;;;;14.15;6.72;;;29.60;78.10;;;;;;5130332;27;20076;-79
2023/07/08 09:32:18;;;;;;;18.27;6.25;;;29.60;78.10;;;;;;5127654;27;20530;-75
2023/07/08 09:35:01;;;;;;;13.55;6.72;;;29.70;77.00;;;;;;5130590;27;20498;-74
2023/07/08 09:37:32;;;;;;;9.35;5.88;;;29.70;75.60;;;;;;5112202;28;20463;-74
2023/07/08 09:40:00;;;;;;;9.48;5.80;;;29.80;75.50;;;;;;5131257;27;20064;-74
2023/07/08 09:42:31;;;;;;;14.63;6.10;;;29.80;75.60;;;;;;5130751;27;20020;-74
2023/07/08 09:45:01;;;;;;;13.07;6.13;;;29.90;74.50;;;;;;5119508;28;20020;-74
2023/07/08 09:47:35;;;;;;;10.82;6.07;;;30.00;74.50;;;;;;5130885;28;20008;-74
2023/07/08 09:50:03;;;;;;;14.52;6.70;;;30.10;73.60;;;;;;5131204;28;20178;-75
2023/07/08 09:52:30;;;;;;;13.90;6.85;;;30.20;72.70;;;;;;5106623;28;20066;-73
2023/07/08 09:54:56;;;;;;;12.75;6.60;;;30.40;72.60;;;;;;5130988;28;20023;-72
2023/07/08 09:57:26;;;;;;;13.35;6.50;;;30.60;71.50;;;;;;5130661;28;20020;-73
2023/07/08 10:00:07;;;;;;;10.80;6.40;;;30.70;70.60;;;;;;5130513;28;20023;-73
2023/07/08 10:02:41;;;;;;;11.30;6.45;;;30.90;68.80;;;;;;5130760;28;20264;-73
2023/07/08 10:05:30;;;;;;;11.30;6.32;;;30.90;68.70;;;;;;5130610;28;20023;-73
2023/07/08 10:07:58;;;;;;;14.88;6.03;;;31.00;67.60;;;;;;5130630;28;20471;-73
2023/07/08 10:10:30;;;;;;;13.65;6.22;;;31.20;68.10;;;;;;5130719;28;20102;-73
2023/07/08 10:13:02;;;;;;;12.30;6.60;;;31.30;68.10;;;;;;5129728;28;20030;-73
2023/07/08 10:15:39;;;;;;;12.40;6.93;;;31.40;67.40;;;;;;5109100;28;20407;-73
2023/07/08 10:18:22;;;;;;;13.77;6.60;;;31.40;67.10;;;;;;5129063;28;20023;-74
2023/07/08 10:21:02;;;;;;;11.90;6.50;;;31.40;67.00;;;;;;5125315;28;20434;-74
2023/07/08 10:23:40;;;;;;;11.10;6.20;;;31.40;67.00;;;;;;5130828;28;20118;-74
2023/07/08 10:26:34;;;;;;;12.73;6.57;;;31.60;67.00;;;;;;5129675;28;20647;-74
2023/07/08 10:29:11;;;;;;;9.23;6.32;;;31.70;66.40;;;;;;5130451;28;20725;-74
2023/07/08 10:32:07;;;;;;;12.85;6.75;;;31.90;65.90;;;;;;5130470;28;20360;-74
2023/07/08 10:35:03;;;;;;;11.90;6.53;;;32.00;65.00;;;;;;5125257;27;20039;-74
2023/07/08 10:37:36;;;;;;;15.63;6.90;;;32.10;64.10;;;;;;5128985;27;20047;-73
2023/07/08 10:40:18;;;;;;;9.23;6.35;;;32.20;64.30;;;;;;5121892;27;20015;-73
2023/07/08 10:43:11;;;;;;;17.58;6.25;;;32.30;63.80;;;;;;5134085;27;20474;-73
2023/07/08 10:46:14;;;;;;;12.95;6.85;;;32.40;63.10;;;;;;5124347;27;20445;-73
2023/07/08 10:48:52;;;;;;;10.40;6.50;;;32.50;62.00;;;;;;5126718;27;20152;-73
2023/07/08 10:51:26;;;;;;;12.10;7.57;;;32.60;61.30;;;;;;5132841;27;20050;-73
2023/07/08 10:54:27;;;;;;;13.57;6.32;;;32.60;60.50;;;;;;5133353;27;20024;-73
2023/07/08 10:57:00;;;;;;;12.18;6.80;;;32.70;59.90;;;;;;5134141;27;20031;-73
2023/07/08 10:59:35;;;;;;;11.63;6.75;;;32.80;59.80;;;;;;5134355;27;20023;-73
2023/07/08 11:02:13;;;;;;;13.00;6.50;;;32.80;58.70;;;;;;5134020;27;20019;-73
2023/07/08 11:05:08;;;;;;;9.90;6.63;;;32.80;58.40;;;;;;5134153;27;20031;-73
2023/07/08 11:08:14;;;;;;;12.13;6.25;;;32.80;58.00;;;;;;5084939;28;20124;-73
2023/07/08 11:10:45;;;;;;;11.43;6.43;;;33.00;57.60;;;;;;5066495;27;20104;-73
2023/07/08 11:13:21;;;;;;;12.88;6.95;;;33.00;57.50;;;;;;5133093;27;20446;-73
2023/07/08 11:15:54;;;;;;;14.38;6.90;;;33.10;56.60;;;;;;5125813;27;20483;-73
2023/07/08 11:18:20;;;;;;;10.90;6.38;;;33.20;56.70;;;;;;5127092;27;20421;-73
2023/07/08 11:20:59;;;;;;;13.65;7.15;;;33.30;56.80;;;;;;5133188;27;20011;-73
2023/07/08 11:23:32;;;;;;;12.90;7.22;;;33.30;56.30;;;;;;5133499;27;20287;-73
2023/07/08 11:26:29;;;;;;;12.95;6.63;;;33.50;56.80;;;;;;5130409;27;20499;-73
2023/07/08 11:28:58;;;;;;;10.10;6.35;;;33.60;57.50;;;;;;5133038;27;20049;-73
2023/07/08 11:31:27;;;;;;;10.00;7.50;;;33.60;58.30;;;;;;5133435;27;20471;-73
2023/07/08 11:33:54;;;;;;;10.63;6.85;;;33.70;56.30;;;;;;5132798;27;20026;-74
2023/07/08 11:36:22;;;;;;;10.15;6.95;;;33.80;55.90;;;;;;5133382;27;20457;-76
2023/07/08 11:38:55;;;;;;;12.43;7.07;;;33.90;56.20;;;;;;5133259;27;20074;-75
2023/07/08 11:41:24;;;;;;;16.67;7.45;;;33.90;56.10;;;;;;5133251;27;20080;-72
2023/07/08 11:43:53;;;;;;;13.02;7.68;;;34.00;56.00;;;;;;5134928;27;20011;-81
2023/07/08 11:46:25;;;;;;;10.27;7.13;;;34.00;54.70;;;;;;5136579;27;20031;-81
2023/07/08 11:48:53;;;;;;;11.75;7.22;;;34.10;54.40;;;;;;5130576;27;20027;-77
2023/07/08 11:51:29;;;;;;;10.95;7.18;;;34.10;54.60;;;;;;5132770;27;20054;-77
2023/07/08 11:54:18;;;;;;;13.75;7.40;;;34.20;54.60;;;;;;5103031;27;20031;-77
2023/07/08 11:57:04;;;;;;;10.65;7.30;;;34.20;54.60;;;;;;5131728;27;20039;-77
2023/07/08 11:59:38;;;;;;;15.48;7.40;;;34.20;54.80;;;;;;5130315;27;20046;-77
2023/07/08 12:02:19;;;;;;;11.07;6.83;;;34.20;54.90;;;;;;5126554;27;20488;-77
2023/07/08 12:05:02;;;;;;;11.93;7.47;;;34.30;53.90;;;;;;5129922;27;20076;-77
2023/07/08 12:07:40;;;;;;;10.60;7.35;;;34.50;53.20;;;;;;5125007;27;20102;-76
2023/07/08 12:10:26;;;;;;;13.27;6.88;;;34.50;52.80;;;;;;5129993;27;20106;-77
2023/07/08 12:12:52;;;;;;;12.30;7.22;;;34.60;53.10;;;;;;5112024;27;20092;-77
2023/07/08 12:15:30;;;;;;;10.82;6.78;;;34.60;52.90;;;;;;5129879;27;20027;-77
2023/07/08 12:18:04;;;;;;;13.45;7.30;;;34.70;52.80;;;;;;5131921;27;20027;-77
2023/07/08 12:20:31;;;;;;;11.60;7.73;;;34.80;52.60;;;;;;5131790;27;20019;-77
2023/07/08 12:22:57;;;;;;;11.77;7.45;;;34.80;52.30;;;;;;5132000;27;20015;-77
2023/07/08 12:25:32;;;;;;;12.20;7.43;;;34.90;52.30;;;;;;5131553;27;20023;-77
2023/07/08 12:27:57;;;;;;;;;;;34.90;52.20;;;;;;5132803;27;20371;-78
2023/07/08 12:30:25;;;;;;;14.43;7.63;;;34.80;52.10;;;;;;5131515;27;19907;-77
2023/07/08 12:32:51;;;;;;;12.27;7.57;;;34.70;52.30;;;;;;5132242;27;20064;-77
2023/07/08 12:35:24;;;;;;;12.93;6.50;;;34.70;52.30;;;;;;5131740;27;20023;-77
2023/07/08 12:38:00;;;;;;;11.10;7.10;;;34.80;52.20;;;;;;5131703;27;20098;-77
2023/07/08 12:40:27;;;;;;;12.38;7.55;;;34.90;51.90;;;;;;5132267;27;20416;-77
2023/07/08 12:42:54;;;;;;;10.30;7.20;;;35.10;51.30;;;;;;5131235;27;20360;-77
2023/07/08 12:45:22;;;;;;;13.52;7.05;;;35.10;51.00;;;;;;5130920;27;20109;-77
2023/07/08 12:47:48;;;;;;;13.38;6.80;;;35.20;51.00;;;;;;5131123;27;20030;-77
2023/07/08 12:50:14;;;;;;;11.27;6.70;;;35.20;50.50;;;;;;5131339;27;20081;-76
2023/07/08 12:52:46;;;;;;;13.35;7.10;;;35.20;50.00;;;;;;5130880;27;20043;-76
2023/07/08 12:55:13;;;;;;;11.85;6.93;;;35.20;50.10;;;;;;5108849;27;20108;-76